Allagash, ME

9:54 AM EDT on August 01, 2014 (GMT -0400)
Apex Wx (KMEFORTK7) Elev 541 ft | 47.25 °N, 68.58 °W | Change Station

Current weather conditions updated 17 seconds ago

Mostly Cloudy
Mostly Cloudy
64.6 °F
Feels Like 64.6 °F
N
3.0
Wind Variable Wind from SSW
Gusts 7.0 mph

Today is forecast to be nearly the same temperature as yesterday.

Today
High -- | Low -- °F
--% Chance of Precip.
Yesterday
High -- | Low -- °F
Precip. -- in
5:15 AM 8:09 PM
Waxing Crescent, 26% visible
Pressure 30.19 in
Visibility 10.0 miles
Clouds Mostly Cloudy 500 ft
Dew Point 62 °F
Humidity 90%
Rainfall 0.05 in
Snow Depth Not available.
UV 3 out of 12
Pollen 5.20 out of 12
Ozone Good
PM2.5 Good
Flu Activity Not available.
SPECI KFVE 011337Z AUTO 17006KT 10SM BKN005 14/14 A3019 RMK AO2 T01440139

More Conditions Fewer Conditions

Pressure 30.19 in
Visibility 10.0 miles
Clouds Mostly Cloudy 500 ft
Dew Point 62 °F
Humidity 90%
Rainfall 0.05 in
Snow Depth Not available.
UV 3 out of 12
Pollen 5.20 out of 12
Ozone Good
PM2.5 Good
Flu Activity Not available.
SPECI KFVE 011337Z AUTO 17006KT 10SM BKN005 14/14 A3019 RMK AO2 T01440139

More Conditions Fewer Conditions

10-Day Weather Forecast

Almanac

Astronomy

Aug. 01, 2014 Rise Set
Actual Time 5:15 AM EDT 8:09 PM EDT
Civil Twilight 4:39 AM EDT 8:44 PM EDT
Nautical Twilight 3:54 AM EDT 9:29 PM EDT
Astronomical Twilight 2:59 AM EDT 10:23 PM EDT
Moon 11:00 AM EDT 10:25 PM EDT
Length of Visible Light 16h 04m
Length of Day
14h 53m
Tomorrow will be 2m 38s shorter.
Waxing Crescent, 26% of the Moon is Illuminated
Today
Waxing Crescent
Aug 3
First Quarter
Aug 10
Full
Aug 17
Last Quarter
Aug 25
New

Today's Extremes

State Highs State Lows

Community

WunderPhotos

Upload Photos

1,739,557 photos uploaded!

Nearby

Air Quality

  Air Quality AQ Index Pollutant
Yesterday Good
PM2.5
Yesterday Good
OZONE
Current Good
PM2.5
Current Good
OZONE
Friday Moderate
PM2.5
Friday Good
OZONE
Saturday Good
OZONE
Saturday Good
PM2.5

Snow Depth

Station Depth Elevation
No new snow has been reported.

Earthquake Activity

City Distance Mag. Time & Date
No recent earthquake activity has been reported nearby.
Minimum magnitude displayed is 2.5.

Coastal Water Temperatures

Place Temperature
No Stations Reporting

Nearby Weather Stations

Station Location Temp. Dew Point Humidity Wind Precip. Elev Updated Type
HADS ST. JOHN RIVER NR DICKEY , Saint Francis, ME 63 °F - - North  at  - 0.00 in / hr 943 ft 9:00 AM EDT MADIS
NEPP Eagle Lake, ME, Eagle Lake, ME 59 °F - - North  at  - 0.00 in / hr 666 ft 8:45 AM EDT MADIS
NEPP Foxbrook, ME, Portage, ME 59 °F - - North  at  - 0.00 in / hr 879 ft 8:40 AM EDT MADIS
Apex Wx, Fort Kent, ME 64.6 °F 62 °F 90% SSW  at  3.0 mph 0.00 in / hr 541 ft 9:54 AM EDT Rapid Fire
HADS ESTCOURT STATION 4ESE MAWS ME, Estcourt Station, ME 64 °F 55 °F 72% NNE  at  1 mph 0.00 in / hr 779 ft 8:45 AM EDT MADIS

Show More Stations Show Fewer Stations